Capt. Ted — WDD6210 — position and weather

sailwx.info

Track history (hours):
 
Tides and Currents Weather Stations Pressure Air Temp Water Temp Dewpoint Dewpoint Depression Visibility Wind Speed Wind Dir Waves Ship Positions

Capt. Ted

Owner: Salisbury Towing Corporation, Richmond, VA. More information available from US FCC via Universal Licensing System and Coast Guard Vessel Documentation Center.

Last reported at 2017-Mar-24 00:10 UTC. Time now 2017-Mar-26 07:31 UTC.
Position N 38°50' W 076°26'.

Length 32 m; draft 2.8 m.

Type: Tug. MMSI: 367169710.

Date/timePositionNaut miles runAvg speedWind from/ knotsBaromVisibWave heightAir tempDewpointWater temp
2017-Mar-24 00:10N 38°50' W 076°26'10 6.4
2017-Mar-23 22:33N 39°00' W 076°22'31 5.2
2017-Mar-23 16:33N 39°28' W 076°03'5 4.9
2017-Mar-23 15:33N 39°33' W 076°04'2 1.6
2017-Mar-23 14:33N 39°31' W 076°05'7 6.6
2017-Mar-23 13:33N 39°25' W 076°02'8 7.5
2017-Mar-23 12:32N 39°21' W 076°11'33 0.7
2017-Mar-21 12:12N 38°50' W 076°26'5 7.2
2017-Mar-21 11:33N 38°55' W 076°26'10 7.1
2017-Mar-21 10:06N 39°05' W 076°24'5 6.9
2017-Mar-21 09:21N 39°10' W 076°25'4 4.2
2017-Mar-21 08:28N 39°13' W 076°22'5 0.4
2017-Mar-20 19:33N 39°12' W 076°29'6 6.2
2017-Mar-20 18:33N 39°15' W 076°35'1 1.3
2017-Mar-20 17:31N 39°15' W 076°36'0 0.1
2017-Mar-20 15:32N 39°15' W 076°36'2 2.0
2017-Mar-20 14:32N 39°14' W 076°34'0 0.0
2017-Mar-20 13:27N 39°14' W 076°34'1 1.5
2017-Mar-20 12:32N 39°15' W 076°34'1 0.9
2017-Mar-20 11:33N 39°15' W 076°35'0 0.0
2017-Mar-20 10:31N 39°15' W 076°35'0 0.0
2017-Mar-20 09:32N 39°16' W 076°35'0 0.0
2017-Mar-20 08:31N 39°16' W 076°35'0 0.0
2017-Mar-20 07:33N 39°15' W 076°35'0 0.0
2017-Mar-20 06:33N 39°16' W 076°35'0 0.0
2017-Mar-20 05:31N 39°16' W 076°35'0 0.0
2017-Mar-20 04:31N 39°16' W 076°35'0 0.0
2017-Mar-20 03:32N 39°16' W 076°35'0 0.0
2017-Mar-20 02:32N 39°16' W 076°35'0 0.0
2017-Mar-20 01:33N 39°16' W 076°35'0 0.0
2017-Mar-20 00:33N 39°15' W 076°35'0 0.0
2017-Mar-19 23:33N 39°15' W 076°35'0 0.0
2017-Mar-19 22:32N 39°15' W 076°35'0 0.0
2017-Mar-19 21:32N 39°15' W 076°35'0 0.0
2017-Mar-19 20:25N 39°15' W 076°35'0 0.1
2017-Mar-19 19:33N 39°15' W 076°35'6 5.9
2017-Mar-19 18:33N 39°12' W 076°29'70 2.5
2017-Mar-18 14:20N 38°02' W 076°21'7 8.0
2017-Mar-18 13:26N 38°06' W 076°29'3 0.1
2017-Mar-17 09:33N 38°07' W 076°33'6 5.9
2017-Mar-17 08:32N 38°03' W 076°27'6 5.8
2017-Mar-17 07:33N 37°60' W 076°21'  
Track history (hours):
 
Tides and Currents Weather Stations Pressure Air Temp Water Temp Dewpoint Dewpoint Depression Visibility Wind Speed Wind Dir Waves Ship Positions

Capt. Ted

Owner: Salisbury Towing Corporation, Richmond, VA. More information available from US FCC via Universal Licensing System and Coast Guard Vessel Documentation Center.

Last reported at 2017-Mar-24 00:10 UTC. Time now 2017-Mar-26 07:31 UTC.
Position N 38°50' W 076°26'.

Length 32 m; draft 2.8 m.

Type: Tug. MMSI: 367169710.

Date/timePositionNaut miles runAvg speedWind from/ knotsBaromVisibWave heightAir tempDewpointWater temp
2017-Mar-24 00:10N 38°50' W 076°26'10 6.4
2017-Mar-23 22:33N 39°00' W 076°22'31 5.2
2017-Mar-23 16:33N 39°28' W 076°03'5 4.9
2017-Mar-23 15:33N 39°33' W 076°04'2 1.6
2017-Mar-23 14:33N 39°31' W 076°05'7 6.6
2017-Mar-23 13:33N 39°25' W 076°02'8 7.5
2017-Mar-23 12:32N 39°21' W 076°11'33 0.7
2017-Mar-21 12:12N 38°50' W 076°26'5 7.2
2017-Mar-21 11:33N 38°55' W 076°26'10 7.1
2017-Mar-21 10:06N 39°05' W 076°24'5 6.9
2017-Mar-21 09:21N 39°10' W 076°25'4 4.2
2017-Mar-21 08:28N 39°13' W 076°22'5 0.4
2017-Mar-20 19:33N 39°12' W 076°29'6 6.2
2017-Mar-20 18:33N 39°15' W 076°35'1 1.3
2017-Mar-20 17:31N 39°15' W 076°36'0 0.1
2017-Mar-20 15:32N 39°15' W 076°36'2 2.0
2017-Mar-20 14:32N 39°14' W 076°34'0 0.0
2017-Mar-20 13:27N 39°14' W 076°34'1 1.5
2017-Mar-20 12:32N 39°15' W 076°34'1 0.9
2017-Mar-20 11:33N 39°15' W 076°35'0 0.0
2017-Mar-20 10:31N 39°15' W 076°35'0 0.0
2017-Mar-20 09:32N 39°16' W 076°35'0 0.0
2017-Mar-20 08:31N 39°16' W 076°35'0 0.0
2017-Mar-20 07:33N 39°15' W 076°35'0 0.0
2017-Mar-20 06:33N 39°16' W 076°35'0 0.0
2017-Mar-20 05:31N 39°16' W 076°35'0 0.0
2017-Mar-20 04:31N 39°16' W 076°35'0 0.0
2017-Mar-20 03:32N 39°16' W 076°35'0 0.0
2017-Mar-20 02:32N 39°16' W 076°35'0 0.0
2017-Mar-20 01:33N 39°16' W 076°35'0 0.0
2017-Mar-20 00:33N 39°15' W 076°35'0 0.0
2017-Mar-19 23:33N 39°15' W 076°35'0 0.0
2017-Mar-19 22:32N 39°15' W 076°35'0 0.0
2017-Mar-19 21:32N 39°15' W 076°35'0 0.0
2017-Mar-19 20:25N 39°15' W 076°35'0 0.1
2017-Mar-19 19:33N 39°15' W 076°35'6 5.9
2017-Mar-19 18:33N 39°12' W 076°29'70 2.5
2017-Mar-18 14:20N 38°02' W 076°21'7 8.0
2017-Mar-18 13:26N 38°06' W 076°29'3 0.1
2017-Mar-17 09:33N 38°07' W 076°33'6 5.9
2017-Mar-17 08:32N 38°03' W 076°27'6 5.8
2017-Mar-17 07:33N 37°60' W 076°21'  

Dump ship's entire track history